sensor_id;sensor_type;location;lat;lon;timestamp;pressure;altitude;pressure_sealevel;temperature;humidity
20930;BME280;21895;47.072;15.132;2023-04-23T00:01:48;96339.00;;;9.28;72.71
20930;BME280;21895;47.072;15.132;2023-04-23T00:04:15;96338.00;;;9.35;73.50
20930;BME280;21895;47.072;15.132;2023-04-23T00:06:46;96330.00;;;9.29;75.52
20930;BME280;21895;47.072;15.132;2023-04-23T00:09:14;96332.00;;;9.43;76.05
20930;BME280;21895;47.072;15.132;2023-04-23T00:11:42;96325.00;;;9.57;75.26
20930;BME280;21895;47.072;15.132;2023-04-23T00:14:09;96325.00;;;9.71;73.09
20930;BME280;21895;47.072;15.132;2023-04-23T00:16:38;96331.00;;;9.32;72.24
20930;BME280;21895;47.072;15.132;2023-04-23T00:19:04;96332.00;;;9.20;73.19
20930;BME280;21895;47.072;15.132;2023-04-23T00:21:31;96331.00;;;9.10;74.04
20930;BME280;21895;47.072;15.132;2023-04-23T00:23:57;96331.00;;;9.06;74.17
20930;BME280;21895;47.072;15.132;2023-04-23T00:26:24;96321.00;;;9.04;73.99
20930;BME280;21895;47.072;15.132;2023-04-23T00:28:50;96321.00;;;8.99;73.98
20930;BME280;21895;47.072;15.132;2023-04-23T00:31:17;96317.00;;;9.00;74.01
20930;BME280;21895;47.072;15.132;2023-04-23T00:33:44;96315.00;;;8.90;74.26
20930;BME280;21895;47.072;15.132;2023-04-23T00:36:10;96316.00;;;8.78;73.86
20930;BME280;21895;47.072;15.132;2023-04-23T00:38:37;96325.00;;;8.62;74.57
20930;BME280;21895;47.072;15.132;2023-04-23T00:41:04;96318.00;;;8.64;76.07
20930;BME280;21895;47.072;15.132;2023-04-23T00:43:31;96315.00;;;8.57;76.82
20930;BME280;21895;47.072;15.132;2023-04-23T00:45:59;96306.00;;;8.65;77.03
20930;BME280;21895;47.072;15.132;2023-04-23T00:48:26;96312.00;;;8.65;77.16
20930;BME280;21895;47.072;15.132;2023-04-23T00:51:04;96311.00;;;8.78;75.76
20930;BME280;21895;47.072;15.132;2023-04-23T00:53:32;96319.00;;;8.59;74.85
20930;BME280;21895;47.072;15.132;2023-04-23T00:56:03;96316.00;;;8.61;75.11
20930;BME280;21895;47.072;15.132;2023-04-23T00:58:32;96319.00;;;8.43;74.84
20930;BME280;21895;47.072;15.132;2023-04-23T01:00:59;96312.00;;;8.43;74.25
20930;BME280;21895;47.072;15.132;2023-04-23T01:03:28;96311.00;;;8.18;73.66
20930;BME280;21895;47.072;15.132;2023-04-23T01:05:56;96313.00;;;8.04;74.36
20930;BME280;21895;47.072;15.132;2023-04-23T01:08:24;96303.00;;;8.07;74.72
20930;BME280;21895;47.072;15.132;2023-04-23T01:10:52;96303.00;;;7.99;75.45
20930;BME280;21895;47.072;15.132;2023-04-23T01:13:19;96304.00;;;7.90;76.47
20930;BME280;21895;47.072;15.132;2023-04-23T01:15:47;96300.00;;;7.91;76.77
20930;BME280;21895;47.072;15.132;2023-04-23T01:18:14;96314.00;;;8.06;76.77
20930;BME280;21895;47.072;15.132;2023-04-23T01:20:40;96310.00;;;8.07;76.58
20930;BME280;21895;47.072;15.132;2023-04-23T01:23:08;96301.00;;;8.12;76.42
20930;BME280;21895;47.072;15.132;2023-04-23T01:25:34;96305.00;;;8.16;76.48
20930;BME280;21895;47.072;15.132;2023-04-23T01:28:01;96298.00;;;8.19;76.25
20930;BME280;21895;47.072;15.132;2023-04-23T01:30:29;96303.00;;;8.18;75.70
20930;BME280;21895;47.072;15.132;2023-04-23T01:32:56;96309.00;;;8.15;75.35
20930;BME280;21895;47.072;15.132;2023-04-23T01:35:24;96308.00;;;8.09;75.83
20930;BME280;21895;47.072;15.132;2023-04-23T01:37:55;96307.00;;;8.09;76.24
20930;BME280;21895;47.072;15.132;2023-04-23T01:40:22;96304.00;;;8.15;75.13
20930;BME280;21895;47.072;15.132;2023-04-23T01:42:49;96301.00;;;8.01;74.41
20930;BME280;21895;47.072;15.132;2023-04-23T01:45:16;96301.00;;;7.94;76.04
20930;BME280;21895;47.072;15.132;2023-04-23T01:47:45;96300.00;;;8.09;75.76
20930;BME280;21895;47.072;15.132;2023-04-23T01:50:13;96300.00;;;7.94;74.92
20930;BME280;21895;47.072;15.132;2023-04-23T01:52:40;96306.00;;;7.93;75.91
20930;BME280;21895;47.072;15.132;2023-04-23T01:55:08;96303.00;;;7.86;76.16
20930;BME280;21895;47.072;15.132;2023-04-23T01:57:35;96310.00;;;7.95;76.60
20930;BME280;21895;47.072;15.132;2023-04-23T02:00:09;96310.00;;;8.02;77.11
20930;BME280;21895;47.072;15.132;2023-04-23T02:02:38;96309.00;;;8.23;76.41
20930;BME280;21895;47.072;15.132;2023-04-23T02:05:11;96311.00;;;8.21;75.87
20930;BME280;21895;47.072;15.132;2023-04-23T02:07:38;96303.00;;;8.21;76.28
20930;BME280;21895;47.072;15.132;2023-04-23T02:10:06;96309.00;;;8.26;75.89
20930;BME280;21895;47.072;15.132;2023-04-23T02:12:35;96307.00;;;8.18;75.58
20930;BME280;21895;47.072;15.132;2023-04-23T02:15:04;96302.00;;;8.09;75.24
20930;BME280;21895;47.072;15.132;2023-04-23T02:17:31;96312.00;;;8.09;75.69
20930;BME280;21895;47.072;15.132;2023-04-23T02:19:58;96305.00;;;8.05;76.77
20930;BME280;21895;47.072;15.132;2023-04-23T02:22:25;96293.00;;;8.01;75.75
20930;BME280;21895;47.072;15.132;2023-04-23T02:24:52;96308.00;;;7.89;75.58
20930;BME280;21895;47.072;15.132;2023-04-23T02:27:20;96309.00;;;7.79;76.14
20930;BME280;21895;47.072;15.132;2023-04-23T02:29:48;96307.00;;;7.82;76.42
20930;BME280;21895;47.072;15.132;2023-04-23T02:32:15;96302.00;;;7.82;76.93
20930;BME280;21895;47.072;15.132;2023-04-23T02:34:41;96302.00;;;7.90;77.29
20930;BME280;21895;47.072;15.132;2023-04-23T02:37:09;96302.00;;;7.97;76.29
20930;BME280;21895;47.072;15.132;2023-04-23T02:39:35;96296.00;;;7.78;75.29
20930;BME280;21895;47.072;15.132;2023-04-23T02:42:04;96301.00;;;7.64;75.94
20930;BME280;21895;47.072;15.132;2023-04-23T02:44:30;96300.00;;;7.62;77.45
20930;BME280;21895;47.072;15.132;2023-04-23T02:46:57;96305.00;;;7.60;77.30
20930;BME280;21895;47.072;15.132;2023-04-23T02:49:23;96304.00;;;7.63;77.04
20930;BME280;21895;47.072;15.132;2023-04-23T02:51:51;96302.00;;;7.62;77.19
20930;BME280;21895;47.072;15.132;2023-04-23T02:54:17;96297.00;;;7.72;77.73
20930;BME280;21895;47.072;15.132;2023-04-23T02:56:44;96294.00;;;7.92;77.20
20930;BME280;21895;47.072;15.132;2023-04-23T02:59:11;96303.00;;;7.88;76.75
20930;BME280;21895;47.072;15.132;2023-04-23T03:01:37;96306.00;;;7.81;76.86
20930;BME280;21895;47.072;15.132;2023-04-23T03:04:04;96308.00;;;7.96;76.96
20930;BME280;21895;47.072;15.132;2023-04-23T03:06:31;96301.00;;;7.91;76.74
20930;BME280;21895;47.072;15.132;2023-04-23T03:08:59;96287.00;;;7.91;76.99
20930;BME280;21895;47.072;15.132;2023-04-23T03:11:26;96291.00;;;8.06;77.08
20930;BME280;21895;47.072;15.132;2023-04-23T03:13:52;96299.00;;;8.17;76.36
20930;BME280;21895;47.072;15.132;2023-04-23T03:16:19;96297.00;;;8.19;76.03
20930;BME280;21895;47.072;15.132;2023-04-23T03:18:45;96293.00;;;8.10;76.60
20930;BME280;21895;47.072;15.132;2023-04-23T03:21:12;96284.00;;;8.16;77.22
20930;BME280;21895;47.072;15.132;2023-04-23T03:23:38;96291.00;;;8.28;77.26
20930;BME280;21895;47.072;15.132;2023-04-23T03:26:05;96287.00;;;8.28;77.68
20930;BME280;21895;47.072;15.132;2023-04-23T03:28:32;96284.00;;;8.36;77.98
20930;BME280;21895;47.072;15.132;2023-04-23T03:30:58;96289.00;;;8.47;77.54
20930;BME280;21895;47.072;15.132;2023-04-23T03:33:25;96293.00;;;8.53;77.39
20930;BME280;21895;47.072;15.132;2023-04-23T03:35:51;96295.00;;;8.56;77.54
20930;BME280;21895;47.072;15.132;2023-04-23T03:38:18;96290.00;;;8.56;77.08
20930;BME280;21895;47.072;15.132;2023-04-23T03:40:44;96291.00;;;8.52;76.70
20930;BME280;21895;47.072;15.132;2023-04-23T03:43:11;96291.00;;;8.55;76.63
20930;BME280;21895;47.072;15.132;2023-04-23T03:45:37;96286.00;;;8.55;76.32
20930;BME280;21895;47.072;15.132;2023-04-23T03:48:04;96280.00;;;8.45;76.67
20930;BME280;21895;47.072;15.132;2023-04-23T03:50:30;96286.00;;;8.55;76.83
20930;BME280;21895;47.072;15.132;2023-04-23T03:53:00;96289.00;;;8.60;77.20
20930;BME280;21895;47.072;15.132;2023-04-23T03:55:26;96291.00;;;8.60;77.19
20930;BME280;21895;47.072;15.132;2023-04-23T03:57:53;96290.00;;;8.65;76.63
20930;BME280;21895;47.072;15.132;2023-04-23T04:00:19;96281.00;;;8.67;76.88
20930;BME280;21895;47.072;15.132;2023-04-23T04:02:46;96286.00;;;8.69;77.00
20930;BME280;21895;47.072;15.132;2023-04-23T04:05:13;96276.00;;;8.79;76.72
20930;BME280;21895;47.072;15.132;2023-04-23T04:07:40;96279.00;;;8.88;76.40
20930;BME280;21895;47.072;15.132;2023-04-23T04:10:07;96280.00;;;8.92;76.47
20930;BME280;21895;47.072;15.132;2023-04-23T04:12:33;96277.00;;;8.89;76.86
20930;BME280;21895;47.072;15.132;2023-04-23T04:15:04;96281.00;;;8.94;77.08
20930;BME280;21895;47.072;15.132;2023-04-23T04:17:31;96276.00;;;9.09;76.83
20930;BME280;21895;47.072;15.132;2023-04-23T04:19:57;96273.00;;;9.21;76.04
20930;BME280;21895;47.072;15.132;2023-04-23T04:22:24;96267.00;;;9.24;76.05
20930;BME280;21895;47.072;15.132;2023-04-23T04:24:50;96283.00;;;9.27;75.73
20930;BME280;21895;47.072;15.132;2023-04-23T04:27:18;96270.00;;;9.26;75.95
20930;BME280;21895;47.072;15.132;2023-04-23T04:29:44;96268.00;;;9.26;75.64
20930;BME280;21895;47.072;15.132;2023-04-23T04:32:11;96277.00;;;9.20;75.83
20930;BME280;21895;47.072;15.132;2023-04-23T04:34:38;96271.00;;;9.31;75.66
20930;BME280;21895;47.072;15.132;2023-04-23T04:37:05;96272.00;;;9.41;75.94
20930;BME280;21895;47.072;15.132;2023-04-23T04:39:32;96273.00;;;9.52;75.55
20930;BME280;21895;47.072;15.132;2023-04-23T04:41:59;96272.00;;;9.60;76.05
20930;BME280;21895;47.072;15.132;2023-04-23T04:44:28;96267.00;;;9.66;76.22
20930;BME280;21895;47.072;15.132;2023-04-23T04:46:55;96271.00;;;9.72;76.33
20930;BME280;21895;47.072;15.132;2023-04-23T04:49:22;96272.00;;;9.86;76.38
20930;BME280;21895;47.072;15.132;2023-04-23T04:51:49;96265.00;;;9.93;76.11
20930;BME280;21895;47.072;15.132;2023-04-23T04:54:15;96264.00;;;10.01;75.92
20930;BME280;21895;47.072;15.132;2023-04-23T04:56:42;96259.00;;;10.11;76.16
20930;BME280;21895;47.072;15.132;2023-04-23T04:59:08;96259.00;;;10.23;75.70
20930;BME280;21895;47.072;15.132;2023-04-23T05:01:34;96254.00;;;10.43;75.36
20930;BME280;21895;47.072;15.132;2023-04-23T05:04:02;96256.00;;;10.46;75.25
20930;BME280;21895;47.072;15.132;2023-04-23T05:06:29;96246.00;;;10.65;74.55
20930;BME280;21895;47.072;15.132;2023-04-23T05:08:57;96254.00;;;10.64;75.23
20930;BME280;21895;47.072;15.132;2023-04-23T05:11:23;96251.00;;;10.66;75.22
20930;BME280;21895;47.072;15.132;2023-04-23T05:13:50;96254.00;;;10.75;74.82
20930;BME280;21895;47.072;15.132;2023-04-23T05:16:17;96261.00;;;10.81;74.65
20930;BME280;21895;47.072;15.132;2023-04-23T05:18:44;96258.00;;;11.03;74.43
20930;BME280;21895;47.072;15.132;2023-04-23T05:21:11;96262.00;;;11.12;74.20
20930;BME280;21895;47.072;15.132;2023-04-23T05:23:38;96256.00;;;11.29;73.90
20930;BME280;21895;47.072;15.132;2023-04-23T05:26:04;96261.00;;;11.42;72.25
20930;BME280;21895;47.072;15.132;2023-04-23T05:28:31;96268.00;;;11.50;71.78
20930;BME280;21895;47.072;15.132;2023-04-23T05:30:57;96266.00;;;11.52;71.31
20930;BME280;21895;47.072;15.132;2023-04-23T05:33:26;96266.00;;;11.70;71.34
20930;BME280;21895;47.072;15.132;2023-04-23T05:35:59;96268.00;;;11.90;71.28
20930;BME280;21895;47.072;15.132;2023-04-23T05:38:25;96268.00;;;12.17;70.84
20930;BME280;21895;47.072;15.132;2023-04-23T05:40:52;96270.00;;;12.08;72.49
20930;BME280;21895;47.072;15.132;2023-04-23T05:43:18;96277.00;;;12.53;71.84
20930;BME280;21895;47.072;15.132;2023-04-23T05:45:45;96260.00;;;13.03;70.32
20930;BME280;21895;47.072;15.132;2023-04-23T05:48:11;96267.00;;;13.42;69.76
20930;BME280;21895;47.072;15.132;2023-04-23T05:50:38;96262.00;;;13.79;67.38
20930;BME280;21895;47.072;15.132;2023-04-23T05:53:04;96273.00;;;14.27;65.29
20930;BME280;21895;47.072;15.132;2023-04-23T05:55:31;96258.00;;;14.46;63.89
20930;BME280;21895;47.072;15.132;2023-04-23T05:57:58;96261.00;;;14.57;63.69
20930;BME280;21895;47.072;15.132;2023-04-23T06:00:24;96267.00;;;14.45;63.98
20930;BME280;21895;47.072;15.132;2023-04-23T06:02:51;96265.00;;;14.51;64.67
20930;BME280;21895;47.072;15.132;2023-04-23T06:05:17;96269.00;;;14.55;64.00
20930;BME280;21895;47.072;15.132;2023-04-23T06:07:44;96266.00;;;14.54;63.16
20930;BME280;21895;47.072;15.132;2023-04-23T06:10:11;96263.00;;;14.56;62.31
20930;BME280;21895;47.072;15.132;2023-04-23T06:12:38;96266.00;;;14.57;62.02
20930;BME280;21895;47.072;15.132;2023-04-23T06:15:07;96269.00;;;14.53;62.39
20930;BME280;21895;47.072;15.132;2023-04-23T06:17:35;96264.00;;;14.55;62.49
20930;BME280;21895;47.072;15.132;2023-04-23T06:20:02;96268.00;;;14.59;63.51
20930;BME280;21895;47.072;15.132;2023-04-23T06:22:30;96267.00;;;14.65;63.04
20930;BME280;21895;47.072;15.132;2023-04-23T06:24:57;96279.00;;;14.58;63.75
20930;BME280;21895;47.072;15.132;2023-04-23T06:27:24;96274.00;;;14.50;63.83
20930;BME280;21895;47.072;15.132;2023-04-23T06:29:52;96280.00;;;14.52;63.31
20930;BME280;21895;47.072;15.132;2023-04-23T06:32:19;96285.00;;;14.62;62.88
20930;BME280;21895;47.072;15.132;2023-04-23T06:34:46;96288.00;;;14.48;63.61
20930;BME280;21895;47.072;15.132;2023-04-23T06:37:27;96279.00;;;14.72;62.62
20930;BME280;21895;47.072;15.132;2023-04-23T06:39:57;96283.00;;;14.94;62.38
20930;BME280;21895;47.072;15.132;2023-04-23T06:42:23;96284.00;;;15.12;61.59
20930;BME280;21895;47.072;15.132;2023-04-23T06:44:50;96275.00;;;15.30;61.13
20930;BME280;21895;47.072;15.132;2023-04-23T06:47:18;96279.00;;;15.43;60.15
20930;BME280;21895;47.072;15.132;2023-04-23T06:49:45;96275.00;;;15.45;59.70
20930;BME280;21895;47.072;15.132;2023-04-23T06:52:11;96271.00;;;15.89;59.96
20930;BME280;21895;47.072;15.132;2023-04-23T06:54:38;96282.00;;;16.36;59.67
20930;BME280;21895;47.072;15.132;2023-04-23T06:57:04;96279.00;;;16.93;57.71
20930;BME280;21895;47.072;15.132;2023-04-23T06:59:31;96274.00;;;17.42;55.59
20930;BME280;21895;47.072;15.132;2023-04-23T07:01:58;96267.00;;;17.69;54.53
20930;BME280;21895;47.072;15.132;2023-04-23T07:04:24;96263.00;;;17.60;53.86
20930;BME280;21895;47.072;15.132;2023-04-23T07:06:51;96271.00;;;17.83;53.99
20930;BME280;21895;47.072;15.132;2023-04-23T07:09:17;96258.00;;;17.99;53.49
20930;BME280;21895;47.072;15.132;2023-04-23T07:11:44;96262.00;;;18.00;52.61
20930;BME280;21895;47.072;15.132;2023-04-23T07:14:10;96256.00;;;18.08;53.30
20930;BME280;21895;47.072;15.132;2023-04-23T07:16:37;96252.00;;;18.09;53.56
20930;BME280;21895;47.072;15.132;2023-04-23T07:19:03;96252.00;;;18.02;52.84
20930;BME280;21895;47.072;15.132;2023-04-23T07:21:30;96246.00;;;17.98;52.40
20930;BME280;21895;47.072;15.132;2023-04-23T07:23:58;96251.00;;;18.39;51.46
20930;BME280;21895;47.072;15.132;2023-04-23T07:26:36;96244.00;;;18.68;51.85
20930;BME280;21895;47.072;15.132;2023-04-23T07:29:04;96240.00;;;18.80;52.30
20930;BME280;21895;47.072;15.132;2023-04-23T07:31:33;96244.00;;;18.80;51.15
20930;BME280;21895;47.072;15.132;2023-04-23T07:33:59;96242.00;;;19.02;51.36
20930;BME280;21895;47.072;15.132;2023-04-23T07:36:26;96244.00;;;19.29;50.84
20930;BME280;21895;47.072;15.132;2023-04-23T07:38:53;96229.00;;;19.35;47.83
20930;BME280;21895;47.072;15.132;2023-04-23T07:41:19;96236.00;;;19.36;48.31
20930;BME280;21895;47.072;15.132;2023-04-23T07:43:46;96228.00;;;19.41;47.51
20930;BME280;21895;47.072;15.132;2023-04-23T07:46:12;96237.00;;;19.20;49.67
20930;BME280;21895;47.072;15.132;2023-04-23T07:48:40;96233.00;;;19.21;49.81
20930;BME280;21895;47.072;15.132;2023-04-23T07:51:07;96240.00;;;18.97;49.93
20930;BME280;21895;47.072;15.132;2023-04-23T07:53:34;96229.00;;;18.99;49.41
20930;BME280;21895;47.072;15.132;2023-04-23T07:56:00;96223.00;;;19.25;50.96
20930;BME280;21895;47.072;15.132;2023-04-23T07:58:27;96226.00;;;19.47;49.63
20930;BME280;21895;47.072;15.132;2023-04-23T08:00:53;96229.00;;;19.63;48.56
20930;BME280;21895;47.072;15.132;2023-04-23T08:03:22;96227.00;;;19.54;49.75
20930;BME280;21895;47.072;15.132;2023-04-23T08:05:49;96229.00;;;19.66;50.30
20930;BME280;21895;47.072;15.132;2023-04-23T08:08:16;96231.00;;;19.83;50.87
20930;BME280;21895;47.072;15.132;2023-04-23T08:10:42;96225.00;;;20.26;47.96
20930;BME280;21895;47.072;15.132;2023-04-23T08:13:09;96225.00;;;20.19;49.28
20930;BME280;21895;47.072;15.132;2023-04-23T08:15:36;96216.00;;;20.20;47.69
20930;BME280;21895;47.072;15.132;2023-04-23T08:18:03;96218.00;;;20.43;48.54
20930;BME280;21895;47.072;15.132;2023-04-23T08:20:30;96228.00;;;20.50;47.80
20930;BME280;21895;47.072;15.132;2023-04-23T08:22:57;96217.00;;;20.58;49.05
20930;BME280;21895;47.072;15.132;2023-04-23T08:25:24;96217.00;;;20.43;48.47
20930;BME280;21895;47.072;15.132;2023-04-23T08:27:50;96216.00;;;20.37;48.05
20930;BME280;21895;47.072;15.132;2023-04-23T08:30:17;96210.00;;;20.82;48.11
20930;BME280;21895;47.072;15.132;2023-04-23T08:32:48;96210.00;;;20.99;47.08
20930;BME280;21895;47.072;15.132;2023-04-23T08:35:15;96199.00;;;21.21;45.52
20930;BME280;21895;47.072;15.132;2023-04-23T08:37:42;96211.00;;;21.10;45.48
20930;BME280;21895;47.072;15.132;2023-04-23T08:40:09;96206.00;;;21.20;43.67
20930;BME280;21895;47.072;15.132;2023-04-23T08:42:57;96213.00;;;21.13;44.60
20930;BME280;21895;47.072;15.132;2023-04-23T08:45:29;96208.00;;;21.46;42.92
20930;BME280;21895;47.072;15.132;2023-04-23T08:47:59;96209.00;;;21.48;42.28
20930;BME280;21895;47.072;15.132;2023-04-23T08:50:29;96205.00;;;21.63;42.53
20930;BME280;21895;47.072;15.132;2023-04-23T08:52:56;96213.00;;;21.86;42.23
20930;BME280;21895;47.072;15.132;2023-04-23T08:55:24;96207.00;;;21.99;41.94
20930;BME280;21895;47.072;15.132;2023-04-23T08:57:51;96207.00;;;22.08;43.71
20930;BME280;21895;47.072;15.132;2023-04-23T09:00:20;96203.00;;;22.17;42.96
20930;BME280;21895;47.072;15.132;2023-04-23T09:02:48;96200.00;;;22.09;41.89
20930;BME280;21895;47.072;15.132;2023-04-23T09:05:15;96203.00;;;22.10;43.67
20930;BME280;21895;47.072;15.132;2023-04-23T09:07:42;96198.00;;;21.95;42.72
20930;BME280;21895;47.072;15.132;2023-04-23T09:10:11;96197.00;;;22.15;42.73
20930;BME280;21895;47.072;15.132;2023-04-23T09:12:41;96189.00;;;22.06;42.28
20930;BME280;21895;47.072;15.132;2023-04-23T09:15:09;96184.00;;;22.24;41.79
20930;BME280;21895;47.072;15.132;2023-04-23T09:17:44;96189.00;;;22.27;42.11
20930;BME280;21895;47.072;15.132;2023-04-23T09:20:13;96185.00;;;22.49;42.25
20930;BME280;21895;47.072;15.132;2023-04-23T09:22:50;96177.00;;;22.79;41.03
20930;BME280;21895;47.072;15.132;2023-04-23T09:25:23;96186.00;;;22.93;39.15
20930;BME280;21895;47.072;15.132;2023-04-23T09:27:51;96183.00;;;22.98;39.40
20930;BME280;21895;47.072;15.132;2023-04-23T09:30:19;96176.00;;;23.02;38.11
20930;BME280;21895;47.072;15.132;2023-04-23T09:32:46;96176.00;;;23.11;38.63
20930;BME280;21895;47.072;15.132;2023-04-23T09:35:16;96176.00;;;22.98;38.95
20930;BME280;21895;47.072;15.132;2023-04-23T09:37:45;96176.00;;;23.12;39.38
20930;BME280;21895;47.072;15.132;2023-04-23T09:40:22;96165.00;;;23.30;39.65
20930;BME280;21895;47.072;15.132;2023-04-23T09:42:51;96166.00;;;23.60;37.35
20930;BME280;21895;47.072;15.132;2023-04-23T09:45:21;96158.00;;;23.19;36.88
20930;BME280;21895;47.072;15.132;2023-04-23T09:47:56;96169.00;;;22.96;38.11
20930;BME280;21895;47.072;15.132;2023-04-23T09:50:36;96158.00;;;23.13;37.79
20930;BME280;21895;47.072;15.132;2023-04-23T09:53:05;96157.00;;;23.21;37.53
20930;BME280;21895;47.072;15.132;2023-04-23T09:55:37;96152.00;;;23.20;37.97
20930;BME280;21895;47.072;15.132;2023-04-23T09:58:13;96153.00;;;23.31;37.19
20930;BME280;21895;47.072;15.132;2023-04-23T10:00:41;96150.00;;;23.10;37.33
20930;BME280;21895;47.072;15.132;2023-04-23T10:03:09;96144.00;;;22.61;37.48
20930;BME280;21895;47.072;15.132;2023-04-23T10:05:41;96147.00;;;22.74;37.53
20930;BME280;21895;47.072;15.132;2023-04-23T10:08:27;96144.00;;;22.89;37.57
20930;BME280;21895;47.072;15.132;2023-04-23T10:10:54;96138.00;;;23.02;37.32
20930;BME280;21895;47.072;15.132;2023-04-23T10:13:45;96137.00;;;23.31;36.95
20930;BME280;21895;47.072;15.132;2023-04-23T10:16:12;96134.00;;;23.34;36.49
20930;BME280;21895;47.072;15.132;2023-04-23T10:18:51;96134.00;;;23.45;38.45
20930;BME280;21895;47.072;15.132;2023-04-23T10:21:25;96136.00;;;23.43;37.59
20930;BME280;21895;47.072;15.132;2023-04-23T10:24:00;96120.00;;;23.19;39.02
20930;BME280;21895;47.072;15.132;2023-04-23T10:26:30;96117.00;;;23.24;37.58
20930;BME280;21895;47.072;15.132;2023-04-23T10:29:00;96120.00;;;23.11;38.77
20930;BME280;21895;47.072;15.132;2023-04-23T10:31:30;96122.00;;;23.29;38.31
20930;BME280;21895;47.072;15.132;2023-04-23T10:33:59;96122.00;;;23.20;38.58
20930;BME280;21895;47.072;15.132;2023-04-23T10:36:27;96105.00;;;23.14;37.40
20930;BME280;21895;47.072;15.132;2023-04-23T10:38:54;96106.00;;;22.94;36.48
20930;BME280;21895;47.072;15.132;2023-04-23T10:41:34;96113.00;;;22.95;38.17
20930;BME280;21895;47.072;15.132;2023-04-23T10:44:04;96112.00;;;22.67;36.95
20930;BME280;21895;47.072;15.132;2023-04-23T10:46:33;96107.00;;;22.67;38.33
20930;BME280;21895;47.072;15.132;2023-04-23T10:49:14;96105.00;;;22.88;37.61
20930;BME280;21895;47.072;15.132;2023-04-23T10:51:45;96111.00;;;22.95;35.98
20930;BME280;21895;47.072;15.132;2023-04-23T10:54:57;96109.00;;;23.03;37.14
20930;BME280;21895;47.072;15.132;2023-04-23T10:57:24;96109.00;;;23.43;35.55
20930;BME280;21895;47.072;15.132;2023-04-23T10:59:53;96111.00;;;23.56;36.73
20930;BME280;21895;47.072;15.132;2023-04-23T11:02:23;96107.00;;;23.64;35.16
20930;BME280;21895;47.072;15.132;2023-04-23T11:04:56;96108.00;;;23.73;34.94
20930;BME280;21895;47.072;15.132;2023-04-23T11:07:32;96098.00;;;23.88;33.59
20930;BME280;21895;47.072;15.132;2023-04-23T11:10:12;96105.00;;;23.72;34.80
20930;BME280;21895;47.072;15.132;2023-04-23T11:12:40;96101.00;;;23.78;34.67
20930;BME280;21895;47.072;15.132;2023-04-23T11:15:13;96095.00;;;23.89;35.18
20930;BME280;21895;47.072;15.132;2023-04-23T11:17:59;96094.00;;;23.98;34.27
20930;BME280;21895;47.072;15.132;2023-04-23T11:20:25;96099.00;;;24.04;34.55
20930;BME280;21895;47.072;15.132;2023-04-23T11:22:52;96083.00;;;24.22;33.16
20930;BME280;21895;47.072;15.132;2023-04-23T11:25:24;96087.00;;;24.42;33.43
20930;BME280;21895;47.072;15.132;2023-04-23T11:27:54;96075.00;;;24.47;33.25
20930;BME280;21895;47.072;15.132;2023-04-23T11:30:24;96090.00;;;24.52;33.45
20930;BME280;21895;47.072;15.132;2023-04-23T11:32:54;96083.00;;;24.60;33.69
20930;BME280;21895;47.072;15.132;2023-04-23T11:35:23;96076.00;;;24.83;32.41
20930;BME280;21895;47.072;15.132;2023-04-23T11:37:53;96079.00;;;25.22;32.11
20930;BME280;21895;47.072;15.132;2023-04-23T11:40:21;96078.00;;;25.13;31.94
20930;BME280;21895;47.072;15.132;2023-04-23T11:42:50;96077.00;;;25.09;33.03
20930;BME280;21895;47.072;15.132;2023-04-23T11:45:18;96073.00;;;25.08;32.90
20930;BME280;21895;47.072;15.132;2023-04-23T11:47:57;96068.00;;;25.08;33.38
20930;BME280;21895;47.072;15.132;2023-04-23T11:50:30;96069.00;;;25.09;35.69
20930;BME280;21895;47.072;15.132;2023-04-23T11:53:20;96074.00;;;25.19;34.39
20930;BME280;21895;47.072;15.132;2023-04-23T11:55:48;96071.00;;;24.79;35.29
20930;BME280;21895;47.072;15.132;2023-04-23T11:58:18;96071.00;;;24.65;34.88
20930;BME280;21895;47.072;15.132;2023-04-23T12:00:45;96069.00;;;24.60;35.46
20930;BME280;21895;47.072;15.132;2023-04-23T12:03:11;96062.00;;;24.56;35.96
20930;BME280;21895;47.072;15.132;2023-04-23T12:05:40;96050.00;;;24.60;36.26
20930;BME280;21895;47.072;15.132;2023-04-23T12:08:18;96054.00;;;24.63;35.14
20930;BME280;21895;47.072;15.132;2023-04-23T12:10:53;96051.00;;;24.42;35.13
20930;BME280;21895;47.072;15.132;2023-04-23T12:13:23;96059.00;;;24.47;35.91
20930;BME280;21895;47.072;15.132;2023-04-23T12:15:53;96058.00;;;24.39;35.55
20930;BME280;21895;47.072;15.132;2023-04-23T12:18:38;96059.00;;;24.43;35.88
20930;BME280;21895;47.072;15.132;2023-04-23T12:21:13;96059.00;;;24.43;34.07
20930;BME280;21895;47.072;15.132;2023-04-23T12:23:41;96050.00;;;24.30;34.24
20930;BME280;21895;47.072;15.132;2023-04-23T12:26:14;96048.00;;;24.19;34.76
20930;BME280;21895;47.072;15.132;2023-04-23T12:28:52;96048.00;;;24.48;34.37
20930;BME280;21895;47.072;15.132;2023-04-23T12:31:28;96048.00;;;24.38;35.25
20930;BME280;21895;47.072;15.132;2023-04-23T12:34:07;96036.00;;;24.79;33.91
20930;BME280;21895;47.072;15.132;2023-04-23T12:36:36;96031.00;;;24.81;34.37
20930;BME280;21895;47.072;15.132;2023-04-23T12:39:30;96019.00;;;25.03;34.93
20930;BME280;21895;47.072;15.132;2023-04-23T12:42:05;96029.00;;;25.11;33.91
20930;BME280;21895;47.072;15.132;2023-04-23T12:44:34;96017.00;;;24.99;34.48
20930;BME280;21895;47.072;15.132;2023-04-23T12:47:03;96016.00;;;24.72;33.39
20930;BME280;21895;47.072;15.132;2023-04-23T12:49:32;96016.00;;;24.72;33.74
20930;BME280;21895;47.072;15.132;2023-04-23T12:52:00;96010.00;;;24.43;34.27
20930;BME280;21895;47.072;15.132;2023-04-23T12:54:30;96012.00;;;24.57;35.09
20930;BME280;21895;47.072;15.132;2023-04-23T12:56:58;96006.00;;;24.67;33.70
20930;BME280;21895;47.072;15.132;2023-04-23T12:59:25;96000.00;;;24.51;34.47
20930;BME280;21895;47.072;15.132;2023-04-23T13:01:52;95999.00;;;24.78;35.50